createdAt,value
2022-12-13T00:01:47.615Z,15.43
2022-12-13T00:04:15.101Z,15.77
2022-12-13T00:06:42.919Z,14.07
2022-12-13T00:09:13.936Z,13.13
2022-12-13T00:11:41.328Z,14.20
2022-12-13T00:14:08.711Z,14.43
2022-12-13T00:16:36.034Z,13.30
2022-12-13T00:19:03.486Z,16.50
2022-12-13T00:21:32.541Z,15.10
2022-12-13T00:24:01.075Z,15.90
2022-12-13T00:26:32.927Z,14.70
2022-12-13T00:29:02.127Z,15.33
2022-12-13T00:34:19.939Z,15.03
2022-12-13T00:36:48.127Z,15.23
2022-12-13T00:39:19.381Z,13.83
2022-12-13T00:41:49.538Z,10.87
2022-12-13T00:44:16.989Z,13.27
2022-12-13T00:46:44.345Z,12.37
2022-12-13T00:49:13.013Z,14.27
2022-12-13T00:51:41.683Z,14.03
2022-12-13T00:54:10.106Z,13.53
2022-12-13T00:56:38.419Z,14.27
2022-12-13T00:59:05.715Z,13.83
2022-12-13T01:01:36.659Z,15.17
2022-12-13T01:04:05.679Z,12.73
2022-12-13T01:06:44.948Z,12.30
2022-12-13T01:09:19.712Z,16.40
2022-12-13T01:11:50.208Z,15.87
2022-12-13T01:14:18.574Z,14.33
2022-12-13T01:16:47.373Z,13.20
2022-12-13T01:19:14.736Z,14.73
2022-12-13T01:21:42.090Z,16.17
2022-12-13T01:24:11.375Z,14.80
2022-12-13T01:26:38.733Z,15.43
2022-12-13T01:29:06.085Z,13.57
2022-12-13T01:31:33.923Z,13.00
2022-12-13T01:34:13.380Z,16.33
2022-12-13T01:36:42.556Z,16.80
2022-12-13T01:39:15.223Z,16.60
2022-12-13T01:41:59.452Z,14.17
2022-12-13T01:44:52.161Z,15.17
2022-12-13T01:47:25.409Z,14.37
2022-12-13T01:49:56.000Z,14.73
2022-12-13T01:52:30.043Z,13.73
2022-12-13T01:55:15.604Z,13.20
2022-12-13T01:57:45.992Z,13.23
2022-12-13T02:00:15.235Z,13.13
2022-12-13T02:02:46.260Z,13.47
2022-12-13T02:05:40.101Z,13.70
2022-12-13T02:08:10.553Z,13.10
2022-12-13T02:10:38.928Z,14.70
2022-12-13T02:13:06.201Z,14.90
2022-12-13T02:16:11.946Z,13.37
2022-12-13T02:18:53.525Z,12.97
2022-12-13T02:21:33.557Z,16.47
2022-12-13T02:24:37.917Z,15.87
2022-12-13T02:27:42.828Z,15.93
2022-12-13T02:30:22.958Z,17.20
2022-12-13T02:33:21.692Z,14.47
2022-12-13T02:36:08.369Z,15.73
2022-12-13T02:38:58.355Z,17.40
2022-12-13T02:41:44.109Z,17.30
2022-12-13T02:44:22.437Z,16.87
2022-12-13T02:47:12.686Z,17.07
2022-12-13T02:49:48.470Z,15.43
2022-12-13T02:52:22.403Z,15.40
2022-12-13T02:54:50.030Z,15.93
2022-12-13T02:57:28.527Z,16.07
2022-12-13T03:00:00.351Z,17.17
2022-12-13T03:02:49.342Z,16.03
2022-12-13T03:06:06.232Z,16.53
2022-12-13T03:08:48.334Z,17.97
2022-12-13T03:11:18.371Z,18.70
2022-12-13T03:13:54.899Z,17.70
2022-12-13T03:16:32.549Z,17.20
2022-12-13T03:19:02.667Z,17.53
2022-12-13T03:21:30.672Z,17.33
2022-12-13T03:23:57.902Z,17.23
2022-12-13T03:26:27.386Z,18.47
2022-12-13T03:28:55.070Z,17.00
2022-12-13T03:31:22.824Z,16.70
2022-12-13T03:33:50.166Z,18.07
2022-12-13T03:36:20.159Z,16.37
2022-12-13T03:38:52.331Z,17.57
2022-12-13T03:41:24.015Z,15.87
2022-12-13T03:43:53.698Z,16.00
2022-12-13T03:46:21.062Z,18.53
2022-12-13T03:48:48.393Z,17.67
2022-12-13T03:51:15.657Z,15.83
2022-12-13T03:53:44.459Z,15.60
2022-12-13T03:56:11.798Z,17.20
2022-12-13T03:58:42.067Z,18.00
2022-12-13T04:01:13.405Z,16.70
2022-12-13T04:03:43.106Z,17.47
2022-12-13T04:06:11.492Z,14.57
2022-12-13T04:08:39.653Z,16.00
2022-12-13T04:11:26.425Z,16.80
2022-12-13T04:13:54.310Z,17.80
2022-12-13T04:16:22.709Z,15.97
2022-12-13T04:18:50.046Z,16.00
2022-12-13T04:21:17.245Z,15.13
2022-12-13T04:23:44.555Z,14.90
2022-12-13T04:26:11.941Z,16.37
2022-12-13T04:28:39.367Z,16.30
2022-12-13T04:31:06.880Z,19.47
2022-12-13T04:33:34.409Z,18.23
2022-12-13T04:36:05.239Z,15.47
2022-12-13T04:38:32.567Z,17.47
2022-12-13T04:41:07.722Z,17.43
2022-12-13T04:43:35.014Z,16.00
2022-12-13T04:46:02.288Z,15.43
2022-12-13T04:48:30.421Z,17.13
2022-12-13T04:51:01.332Z,17.97
2022-12-13T04:53:29.747Z,14.73
2022-12-13T04:55:57.148Z,15.67
2022-12-13T04:58:24.790Z,16.50
2022-12-13T05:00:52.352Z,15.23
2022-12-13T05:03:19.603Z,18.50
2022-12-13T05:05:52.306Z,17.37
2022-12-13T05:08:19.888Z,19.40
2022-12-13T05:10:47.241Z,19.10
2022-12-13T05:13:14.487Z,15.73
2022-12-13T05:15:41.779Z,17.30
2022-12-13T05:18:11.126Z,17.57
2022-12-13T05:20:39.710Z,18.90
2022-12-13T05:23:07.278Z,18.23
2022-12-13T05:25:36.923Z,16.93
2022-12-13T05:28:27.244Z,18.57
2022-12-13T05:30:53.882Z,18.23
2022-12-13T05:33:23.038Z,20.53
2022-12-13T05:35:52.948Z,19.40
2022-12-13T05:38:23.598Z,19.33
2022-12-13T05:40:50.875Z,18.50
2022-12-13T05:43:21.864Z,18.17
2022-12-13T05:45:50.916Z,16.87
2022-12-13T05:48:24.422Z,14.47
2022-12-13T05:51:10.701Z,16.77
2022-12-13T05:53:42.633Z,15.13
2022-12-13T05:56:11.509Z,17.27
2022-12-13T05:58:42.382Z,20.10
2022-12-13T06:01:12.211Z,17.67
2022-12-13T06:03:40.368Z,17.53
2022-12-13T06:06:09.295Z,17.30
2022-12-13T06:08:37.320Z,18.23
2022-12-13T06:11:10.293Z,17.47
2022-12-13T06:13:43.961Z,15.33
2022-12-13T06:16:23.525Z,16.03
2022-12-13T06:19:01.286Z,16.40
2022-12-13T06:21:41.246Z,16.73
2022-12-13T06:24:11.147Z,17.43
2022-12-13T06:26:38.484Z,16.33
2022-12-13T06:29:05.870Z,17.17
2022-12-13T06:31:33.232Z,16.27
2022-12-13T06:34:14.731Z,18.57
2022-12-13T06:36:43.281Z,17.40
2022-12-13T06:39:10.507Z,18.13
2022-12-13T06:41:37.897Z,18.10
2022-12-13T06:44:05.530Z,17.13
2022-12-13T06:46:33.237Z,19.17
2022-12-13T06:49:03.722Z,19.10
2022-12-13T06:51:33.949Z,16.53
2022-12-13T06:54:04.586Z,18.57
2022-12-13T06:56:32.743Z,19.47
2022-12-13T06:59:01.466Z,21.70
2022-12-13T07:01:36.999Z,24.80
2022-12-13T07:04:29.362Z,26.47
2022-12-13T07:07:01.174Z,18.77
2022-12-13T07:09:33.293Z,18.03
2022-12-13T07:12:00.943Z,19.00
2022-12-13T07:14:28.515Z,19.23
2022-12-13T07:17:03.223Z,17.50
2022-12-13T07:19:35.413Z,23.07
2022-12-13T07:22:06.157Z,21.77
2022-12-13T07:24:34.818Z,25.83
2022-12-13T07:27:03.451Z,25.37
2022-12-13T07:29:31.075Z,25.00
2022-12-13T07:32:01.161Z,23.80
2022-12-13T07:34:30.365Z,20.90
2022-12-13T07:36:57.959Z,21.47
2022-12-13T07:39:26.422Z,20.43
2022-12-13T07:41:55.926Z,24.37
2022-12-13T07:44:24.648Z,22.93
2022-12-13T07:46:52.040Z,20.47
2022-12-13T07:49:19.407Z,22.07
2022-12-13T07:51:48.069Z,24.67
2022-12-13T07:54:15.398Z,24.90
2022-12-13T07:56:42.671Z,24.87
2022-12-13T07:59:11.280Z,21.83
2022-12-13T08:01:38.817Z,26.33
2022-12-13T08:04:06.456Z,25.27
2022-12-13T08:06:38.120Z,21.80
2022-12-13T08:09:06.392Z,20.60
2022-12-13T08:11:33.801Z,22.03
2022-12-13T08:14:01.277Z,18.93
2022-12-13T08:16:30.296Z,20.47
2022-12-13T08:19:02.726Z,20.97
2022-12-13T08:21:56.724Z,22.00
2022-12-13T08:24:26.559Z,21.27
2022-12-13T08:26:55.423Z,23.10
2022-12-13T08:29:33.941Z,22.13
2022-12-13T08:32:11.016Z,20.03
2022-12-13T08:34:39.375Z,19.10
2022-12-13T08:37:06.738Z,23.33
2022-12-13T08:39:36.463Z,17.73
2022-12-13T08:42:14.718Z,20.07
2022-12-13T08:44:46.716Z,27.77
2022-12-13T08:47:22.925Z,21.17
2022-12-13T08:50:02.318Z,19.70
2022-12-13T08:52:39.242Z,18.83
2022-12-13T08:55:10.394Z,18.87
2022-12-13T08:57:38.777Z,18.93
2022-12-13T09:00:07.111Z,20.50
2022-12-13T09:02:38.217Z,17.77
2022-12-13T09:05:07.476Z,17.73
2022-12-13T09:07:36.100Z,17.67
2022-12-13T09:10:07.332Z,19.03
2022-12-13T09:13:01.300Z,16.63
2022-12-13T09:15:34.212Z,19.00
2022-12-13T09:18:04.252Z,19.00
2022-12-13T09:20:41.481Z,18.53
2022-12-13T09:23:14.027Z,17.17
2022-12-13T09:26:05.491Z,17.33
2022-12-13T09:28:37.216Z,15.93
2022-12-13T09:31:13.528Z,20.13
2022-12-13T09:33:42.010Z,16.20
2022-12-13T09:36:18.152Z,19.03
2022-12-13T09:38:46.286Z,19.53
2022-12-13T09:41:28.578Z,19.77
2022-12-13T09:44:32.784Z,19.67
2022-12-13T09:47:04.258Z,18.47
2022-12-13T09:49:52.031Z,18.77
2022-12-13T09:52:25.055Z,17.10
2022-12-13T09:54:55.592Z,16.97
2022-12-13T09:57:34.670Z,16.93
2022-12-13T10:00:06.982Z,15.67
2022-12-13T10:02:50.401Z,16.57
2022-12-13T10:05:43.849Z,17.63
2022-12-13T10:08:16.738Z,17.97
2022-12-13T10:10:44.300Z,17.77
2022-12-13T10:13:19.716Z,16.80
2022-12-13T10:16:03.840Z,15.90
2022-12-13T10:18:37.652Z,14.37
2022-12-13T10:21:26.833Z,16.13
2022-12-13T10:24:25.837Z,14.87
2022-12-13T10:26:51.672Z,15.70
2022-12-13T10:29:19.668Z,15.67
2022-12-13T10:31:49.080Z,16.57
2022-12-13T10:34:35.500Z,15.20
2022-12-13T10:37:26.017Z,18.07
2022-12-13T10:39:53.180Z,15.17
2022-12-13T10:42:23.586Z,15.80
2022-12-13T10:45:23.969Z,15.67
2022-12-13T10:47:52.070Z,17.73
2022-12-13T10:50:28.494Z,15.30
2022-12-13T10:52:57.649Z,14.00
2022-12-13T10:55:37.835Z,16.13
2022-12-13T10:58:18.030Z,17.13
2022-12-13T11:00:47.357Z,19.20
2022-12-13T11:03:30.900Z,17.00
2022-12-13T11:06:14.819Z,14.90
2022-12-13T11:08:42.217Z,15.37
2022-12-13T11:11:10.965Z,19.43
2022-12-13T11:13:45.310Z,23.40
2022-12-13T11:16:27.766Z,17.80
2022-12-13T11:18:58.314Z,17.17
2022-12-13T11:21:28.624Z,18.73
2022-12-13T11:24:01.980Z,15.03
2022-12-13T11:26:32.559Z,16.70
2022-12-13T11:29:12.348Z,15.17
2022-12-13T11:31:56.230Z,13.13
2022-12-13T11:34:47.432Z,12.10
2022-12-13T11:37:32.078Z,13.47
2022-12-13T11:40:15.490Z,13.77
2022-12-13T11:42:48.545Z,14.20
2022-12-13T11:45:24.320Z,14.13
2022-12-13T11:48:01.612Z,13.93
2022-12-13T11:50:46.603Z,11.57
2022-12-13T11:53:23.454Z,11.80
2022-12-13T11:56:05.822Z,12.73
2022-12-13T11:59:20.740Z,13.30
2022-12-13T12:02:21.521Z,17.20
2022-12-13T12:04:58.344Z,16.83
2022-12-13T12:08:21.199Z,20.03
2022-12-13T12:10:45.647Z,28.90
2022-12-13T12:13:33.285Z,25.80
2022-12-13T12:16:10.598Z,24.20
2022-12-13T12:18:37.828Z,23.13
2022-12-13T12:24:55.023Z,22.93
2022-12-13T12:27:25.122Z,23.77
2022-12-13T12:29:58.114Z,21.73
2022-12-13T12:32:41.232Z,27.87
2022-12-13T12:35:45.944Z,28.67
2022-12-13T12:38:44.243Z,21.93
2022-12-13T12:41:32.954Z,61.43
2022-12-13T12:44:18.706Z,25.47
2022-12-13T12:47:36.204Z,139.50
2022-12-13T12:50:34.098Z,37.63
2022-12-13T12:53:15.391Z,25.20
2022-12-13T12:56:03.580Z,32.77
2022-12-13T12:58:40.085Z,27.60
2022-12-13T13:01:37.678Z,23.60
2022-12-13T13:04:14.082Z,23.97
2022-12-13T13:07:03.903Z,21.27
2022-12-13T13:09:31.920Z,22.40
2022-12-13T13:12:29.307Z,24.67
2022-12-13T13:14:51.211Z,23.93
2022-12-13T13:17:41.721Z,61.53
2022-12-13T13:20:23.596Z,30.03
2022-12-13T13:23:10.354Z,22.03
2022-12-13T13:26:07.512Z,25.43
2022-12-13T13:28:30.509Z,23.40
2022-12-13T13:31:05.303Z,23.13
2022-12-13T13:33:48.271Z,21.47
2022-12-13T13:36:41.174Z,27.30
2022-12-13T13:39:19.586Z,23.03
2022-12-13T13:41:52.568Z,42.57
2022-12-13T13:44:50.300Z,53.97
2022-12-13T13:47:20.592Z,30.17
2022-12-13T13:50:06.625Z,23.97
2022-12-13T13:52:57.959Z,24.83
2022-12-13T13:55:47.502Z,20.30
2022-12-13T13:58:48.107Z,21.07
2022-12-13T14:01:33.668Z,26.47
2022-12-13T14:04:34.035Z,22.17
2022-12-13T14:07:42.879Z,23.60
2022-12-13T14:10:26.226Z,23.53
2022-12-13T14:13:02.574Z,23.10
2022-12-13T14:15:59.961Z,20.97
2022-12-13T14:18:41.008Z,23.70
2022-12-13T14:21:37.377Z,19.80
2022-12-13T14:24:19.107Z,15.70
2022-12-13T14:26:56.631Z,14.37
2022-12-13T14:29:31.382Z,15.50
2022-12-13T14:31:58.924Z,16.67
2022-12-13T14:34:30.995Z,19.47
2022-12-13T14:37:03.915Z,17.60
2022-12-13T14:39:34.623Z,18.57
2022-12-13T14:42:21.311Z,18.23
2022-12-13T14:44:48.509Z,20.23
2022-12-13T14:47:17.701Z,16.30
2022-12-13T14:49:50.621Z,19.37
2022-12-13T14:52:33.433Z,18.27
2022-12-13T14:55:04.673Z,16.97
2022-12-13T14:57:35.197Z,16.10
2022-12-13T15:00:26.497Z,15.77
2022-12-13T15:02:57.146Z,17.40
2022-12-13T15:05:28.588Z,18.90
2022-12-13T15:07:57.160Z,16.23
2022-12-13T15:10:33.167Z,18.33
2022-12-13T15:13:00.364Z,19.40
2022-12-13T15:15:36.696Z,20.20
2022-12-13T15:18:09.717Z,23.30
2022-12-13T15:20:41.716Z,20.00
2022-12-13T15:23:21.156Z,18.33
2022-12-13T15:26:00.399Z,19.10
2022-12-13T15:28:31.964Z,19.20
2022-12-13T15:31:00.631Z,19.40
2022-12-13T15:33:35.162Z,20.63
2022-12-13T15:36:11.036Z,22.23
2022-12-13T15:38:47.447Z,22.10
2022-12-13T15:41:19.569Z,28.33
2022-12-13T15:43:51.072Z,26.73
2022-12-13T15:46:39.451Z,25.67
2022-12-13T15:49:48.026Z,24.47
2022-12-13T15:52:15.141Z,22.17
2022-12-13T15:54:55.208Z,22.40
2022-12-13T15:57:27.499Z,23.20
2022-12-13T16:00:16.703Z,21.47
2022-12-13T16:02:58.378Z,26.30
2022-12-13T16:05:31.894Z,25.57
2022-12-13T16:08:14.217Z,28.87
2022-12-13T16:10:50.136Z,24.83
2022-12-13T16:13:30.785Z,26.30
2022-12-13T16:16:09.149Z,30.00
2022-12-13T16:18:53.639Z,27.53
2022-12-13T16:21:20.974Z,24.97
2022-12-13T16:23:49.276Z,26.43
2022-12-13T16:26:23.002Z,28.50
2022-12-13T16:28:50.306Z,27.87
2022-12-13T16:31:23.104Z,26.27
2022-12-13T16:33:50.611Z,29.33
2022-12-13T16:36:18.059Z,31.17
2022-12-13T16:38:45.734Z,29.07
2022-12-13T16:41:14.583Z,33.70
2022-12-13T16:43:58.298Z,40.07
2022-12-13T16:47:16.102Z,46.60
2022-12-13T16:49:23.665Z,36.40
2022-12-13T16:51:53.272Z,30.13
2022-12-13T16:54:22.373Z,32.23
2022-12-13T16:56:50.574Z,31.37
2022-12-13T16:59:22.222Z,30.20
2022-12-13T17:01:50.274Z,30.30
2022-12-13T17:04:21.619Z,33.93
2022-12-13T17:06:50.303Z,33.63
2022-12-13T17:09:18.624Z,35.03
2022-12-13T17:11:45.940Z,35.63
2022-12-13T17:14:13.118Z,32.97
2022-12-13T17:16:40.345Z,41.53
2022-12-13T17:19:07.534Z,41.37
2022-12-13T17:21:34.975Z,39.67
2022-12-13T17:24:03.035Z,39.27
2022-12-13T17:26:30.335Z,39.93
2022-12-13T17:28:57.538Z,48.57
2022-12-13T17:31:28.100Z,48.27
2022-12-13T17:34:00.641Z,39.07
2022-12-13T17:36:27.967Z,34.83
2022-12-13T17:38:55.131Z,40.33
2022-12-13T17:41:22.962Z,36.83
2022-12-13T17:43:51.232Z,35.17
2022-12-13T17:46:19.151Z,35.37
2022-12-13T17:48:46.685Z,35.57
2022-12-13T17:51:14.835Z,31.80
2022-12-13T17:53:44.005Z,33.93
2022-12-13T17:56:15.173Z,34.17
2022-12-13T17:58:42.948Z,33.23
2022-12-13T18:01:22.114Z,34.07
2022-12-13T18:03:52.499Z,34.47
2022-12-13T18:06:20.145Z,34.30
2022-12-13T18:08:47.912Z,34.87
2022-12-13T18:11:32.782Z,37.60
2022-12-13T18:14:02.076Z,36.20
2022-12-13T18:16:36.413Z,35.83
2022-12-13T18:19:07.535Z,33.37
2022-12-13T18:21:36.874Z,37.03
2022-12-13T18:24:06.129Z,36.27
2022-12-13T18:26:34.317Z,40.87
2022-12-13T18:29:02.042Z,41.17
2022-12-13T18:31:29.372Z,38.67
2022-12-13T18:33:56.839Z,36.47
2022-12-13T18:36:25.320Z,35.30
2022-12-13T18:38:52.818Z,39.13
2022-12-13T18:41:28.036Z,37.70
2022-12-13T18:44:01.895Z,38.97
2022-12-13T18:46:31.443Z,45.57
2022-12-13T18:48:59.317Z,38.73
2022-12-13T18:51:27.004Z,40.00
2022-12-13T18:53:54.821Z,36.63
2022-12-13T18:56:22.750Z,31.63
2022-12-13T18:58:51.316Z,33.07
2022-12-13T19:01:20.034Z,30.70
2022-12-13T19:03:48.574Z,31.30
2022-12-13T19:06:18.849Z,30.87
2022-12-13T19:08:51.357Z,30.60
2022-12-13T19:11:19.126Z,32.73
2022-12-13T19:13:47.047Z,29.97
2022-12-13T19:16:17.148Z,31.03
2022-12-13T19:18:44.727Z,36.57
2022-12-13T19:21:18.077Z,33.27
2022-12-13T19:23:50.034Z,28.97
2022-12-13T19:26:21.535Z,31.30
2022-12-13T19:28:48.745Z,29.60
2022-12-13T19:31:16.080Z,27.83
2022-12-13T19:33:43.714Z,29.87
2022-12-13T19:36:11.624Z,26.97
2022-12-13T19:38:40.116Z,33.63
2022-12-13T19:41:12.367Z,29.47
2022-12-13T19:43:40.255Z,25.13
2022-12-13T19:46:08.309Z,23.77
2022-12-13T19:48:37.893Z,23.23
2022-12-13T19:51:10.751Z,25.13
2022-12-13T19:53:39.126Z,21.70
2022-12-13T19:56:15.186Z,23.10
2022-12-13T19:58:42.562Z,21.43
2022-12-13T20:01:11.210Z,19.80
2022-12-13T20:03:41.386Z,17.97
2022-12-13T20:06:11.303Z,19.20
2022-12-13T20:08:38.821Z,19.63
2022-12-13T20:11:09.535Z,18.73
2022-12-13T20:13:37.637Z,18.83
2022-12-13T20:16:06.376Z,19.20
2022-12-13T20:18:34.974Z,18.70
2022-12-13T20:21:13.307Z,19.97
2022-12-13T20:23:49.439Z,18.17
2022-12-13T20:26:21.089Z,17.37
2022-12-13T20:28:49.585Z,17.50
2022-12-13T20:31:22.806Z,17.67
2022-12-13T20:33:55.842Z,17.63
2022-12-13T20:36:25.264Z,20.60
2022-12-13T20:38:56.548Z,19.57
2022-12-13T20:41:28.906Z,20.47
2022-12-13T20:43:58.837Z,17.80
2022-12-13T20:46:30.166Z,19.20
2022-12-13T20:49:00.443Z,21.87
2022-12-13T20:51:29.842Z,19.57
2022-12-13T20:53:57.576Z,18.87
2022-12-13T20:56:27.825Z,20.07
2022-12-13T20:58:57.664Z,21.63
2022-12-13T21:01:27.844Z,21.20
2022-12-13T21:03:58.480Z,22.73
2022-12-13T21:06:27.354Z,21.90
2022-12-13T21:08:55.193Z,21.27
2022-12-13T21:11:26.844Z,20.37
2022-12-13T21:14:07.531Z,24.13
2022-12-13T21:16:42.077Z,22.13
2022-12-13T21:19:12.038Z,21.63
2022-12-13T21:21:39.425Z,23.23
2022-12-13T21:24:07.282Z,22.87
2022-12-13T21:26:35.974Z,20.93
2022-12-13T21:29:06.524Z,21.07
2022-12-13T21:31:35.778Z,21.90
2022-12-13T21:34:05.166Z,20.27
2022-12-13T21:36:38.050Z,22.17
2022-12-13T21:39:16.517Z,17.33
2022-12-13T21:41:44.349Z,19.53
2022-12-13T21:44:13.522Z,18.00
2022-12-13T21:47:10.668Z,18.60
2022-12-13T21:49:29.033Z,19.07
2022-12-13T21:51:56.250Z,21.50
2022-12-13T21:54:23.447Z,18.80
2022-12-13T21:57:09.118Z,17.17
2022-12-13T21:59:36.366Z,18.37
2022-12-13T22:02:16.527Z,17.57
2022-12-13T22:04:55.890Z,16.67
2022-12-13T22:07:28.815Z,19.60
2022-12-13T22:09:56.759Z,17.37
2022-12-13T22:12:25.184Z,18.43
2022-12-13T22:14:53.350Z,18.97
2022-12-13T22:17:31.289Z,16.80
2022-12-13T22:20:03.715Z,18.27
2022-12-13T22:22:31.445Z,16.63
2022-12-13T22:24:58.686Z,16.77
2022-12-13T22:27:26.327Z,17.40
2022-12-13T22:29:58.140Z,16.10
2022-12-13T22:32:27.359Z,18.17
2022-12-13T22:34:54.808Z,16.70
2022-12-13T22:37:22.651Z,17.07
2022-12-13T22:39:50.171Z,17.87
2022-12-13T22:42:17.386Z,16.63
2022-12-13T22:44:44.763Z,17.73
2022-12-13T22:47:11.951Z,17.87
2022-12-13T22:49:39.884Z,17.70
2022-12-13T22:52:08.231Z,17.17
2022-12-13T22:54:35.746Z,18.37
2022-12-13T22:57:03.163Z,17.97
2022-12-13T22:59:30.497Z,21.07
2022-12-13T23:02:02.448Z,17.80
2022-12-13T23:04:32.883Z,16.57
2022-12-13T23:07:00.152Z,19.87
2022-12-13T23:09:27.355Z,17.30
2022-12-13T23:12:13.424Z,19.73
2022-12-13T23:14:40.749Z,18.57
2022-12-13T23:17:08.206Z,18.87
2022-12-13T23:19:50.520Z,18.47
2022-12-13T23:22:25.464Z,18.03
2022-12-13T23:24:53.423Z,20.73
2022-12-13T23:27:22.499Z,17.97
2022-12-13T23:29:50.158Z,19.00
2022-12-13T23:32:17.458Z,20.67
2022-12-13T23:34:44.764Z,19.23
2022-12-13T23:37:11.922Z,19.17
2022-12-13T23:39:39.119Z,20.43
2022-12-13T23:42:06.421Z,19.47
2022-12-13T23:44:33.704Z,19.50
2022-12-13T23:47:00.872Z,20.60
2022-12-13T23:49:29.053Z,20.47
2022-12-13T23:51:56.206Z,20.47
2022-12-13T23:54:23.435Z,19.37
2022-12-13T23:56:50.745Z,19.47
2022-12-13T23:59:18.774Z,18.63
